Terminal Aerodrome Forecast
Issued by NWS

Home | Current Version | Previous Version | Graphics & Text | Print | Product List | Glossary Off
Versions: 1 2 3 4 5 6 7 8 9 10 11 12 13 14 15 16 17 18 19 20 21 22

000
FTUS45 KGGW 012300
TAFGDV
TAF
KGDV 012337Z 0200/0224 28023G31KT P6SM VCSH SCT050 BKN100
     FM020200 27013KT P6SM SCT120
     FM021200 30028G36KT 6SM -SHSN SCT040 BKN070
     FM022200 33015G25KT P6SM VCSH SCT090
      AMD LTD TO CLD VIS AND WIND=

USA.gov is the U.S. government's official web portal to all federal, state and local government web resources and services.